This is the latest recevied weather packets stored in our database for station/object WC4PEM-10. If no packets are shown the sender has not sent any weather packets the latest 1 day(s).
| Time | Temp. | Humidity | Pressure | Rain* | Wind** | Luminosity | Snow |
|---|---|---|---|---|---|---|---|
| 1778066486 | 16.67° C | 97% | 1015.9 hPa | 0 mm | - | - | - |
| 1778066416 | 16.67° C | 97% | 1015.9 hPa | 0 mm | - | - | - |
| 1778066186 | 16.67° C | 97% | 1015.9 hPa | 0 mm | - | - | - |
| 1778066132 | 16.67° C | 97% | 1015.8 hPa | 0 mm | - | - | - |
| 1778065886 | 16.67° C | 97% | 1015.8 hPa | 0 mm | - | - | - |
| 1778065586 | 16.11° C | 97% | 1015.8 hPa | 0 mm | - | - | - |
| 1778065286 | 15.56° C | 96% | 1015.7 hPa | 0 mm | - | - | - |
| 1778064986 | 15.56° C | 96% | 1015.7 hPa | 0 mm | - | - | - |
| 1778064686 | 15.56° C | 95% | 1015.7 hPa | 0 mm | - | - | - |
| 1778064386 | 15.56° C | 95% | 1015.5 hPa | 0 mm | - | - | - |
| 1778064086 | 16.11° C | 95% | 1015.5 hPa | 0 mm | - | - | - |
| 1778063786 | 16.11° C | 96% | 1015.4 hPa | 0 mm | - | - | - |
| 1778063486 | 16.11° C | 96% | 1015.4 hPa | 0 mm | - | - | - |
| 1778063186 | 16.11° C | 96% | 1015.3 hPa | 0 mm | - | - | - |
| 1778062886 | 16.11° C | 96% | 1015.4 hPa | 0 mm | - | - | - |
| 1778062586 | 16.11° C | 96% | 1015.4 hPa | 0 mm | - | - | - |
| 1778062555 | 18.33° C | 86% | 1016.1 hPa | 0 mm | - | - | - |
| 1778062423 | 16.11° C | 96% | 1015.4 hPa | 0 mm | - | - | - |
| 1778062286 | 16.11° C | 96% | 1015.5 hPa | 0 mm | - | - | - |
| 1778061986 | 16.11° C | 96% | 1015.4 hPa | 0 mm | - | - | - |
| 1778061746 | 16.11° C | 95% | 1015.4 hPa | 0 mm | - | - | - |
| 1778061686 | 16.11° C | 96% | 1015.4 hPa | 0 mm | - | - | - |
| 1778061386 | 16.11° C | 95% | 1015.4 hPa | 0 mm | - | - | - |
| 1778061086 | 16.11° C | 95% | 1015.3 hPa | 0 mm | - | - | - |
| 1778060786 | 16.11° C | 95% | 1015.3 hPa | 0 mm | - | - | - |
* Rain latest hour (hover to see other rain measurements)
** Current wind speed in m/s (hover to see current wind gust speed)